This is the latest recevied weather packets stored in our database for station/object KK7RJD. If no packets are shown the sender has not sent any weather packets the latest 10 day(s).
| Time | Temp. | Humidity | Pressure | Rain* | Wind** | Luminosity | Snow |
|---|---|---|---|---|---|---|---|
| 1777222537 | 3.89° C | 52% | 1006.8 hPa | 0 mm | - | 509 W/m² | - |
| 1777222234 | 3.89° C | 51% | 1006.8 hPa | 0 mm | - | 476 W/m² | - |
| 1777221932 | 3.89° C | 53% | 1006.7 hPa | 0 mm | - | 399 W/m² | - |
| 1777221627 | 3.33° C | 54% | 1006.7 hPa | 0 mm | - | 327 W/m² | - |
| 1777221324 | 3.89° C | 53% | 1006.6 hPa | 0 mm | - | 347 W/m² | - |
| 1777221022 | 3.33° C | 56% | 1006.7 hPa | 0 mm | - | 376 W/m² | - |
| 1777220721 | 3.33° C | 54% | 1006.4 hPa | 0 mm | - | 301 W/m² | - |
| 1777220417 | 3.33° C | 55% | 1006.4 hPa | 0 mm | - | 344 W/m² | - |
| 1777220117 | 2.78° C | 56% | 1006.4 hPa | 0 mm | - | 323 W/m² | - |
| 1777219815 | 2.78° C | 57% | 1006.4 hPa | 0 mm | - | 317 W/m² | - |
| 1777219512 | 2.78° C | 56% | 1006.6 hPa | 0 mm | - | 355 W/m² | - |
| 1777219209 | 2.78° C | 57% | 1006.6 hPa | 0 mm | - | 331 W/m² | - |
| 1777218904 | 2.78° C | 56% | 1006.6 hPa | 0 mm | - | 317 W/m² | - |
| 1777218600 | 2.78° C | 57% | 1006.7 hPa | 0 mm | - | 265 W/m² | - |
| 1777218300 | 2.78° C | 56% | 1006.7 hPa | 0 mm | - | 235 W/m² | - |
| 1777217997 | 2.78° C | 56% | 1006.8 hPa | 0 mm | - | 225 W/m² | - |
| 1777217693 | 2.78° C | 57% | 1006.8 hPa | 0 mm | - | 234 W/m² | - |
| 1777217389 | 2.78° C | 57% | 1006.9 hPa | 0 mm | - | 255 W/m² | - |
| 1777217086 | 2.78° C | 57% | 1007 hPa | 0 mm | - | 291 W/m² | - |
| 1777216782 | 2.78° C | 57% | 1006.8 hPa | 0 mm | - | 258 W/m² | - |
| 1777216478 | 2.22° C | 58% | 1006.9 hPa | 0 mm | - | 373 W/m² | - |
| 1777216173 | 2.22° C | 59% | 1007 hPa | 0 mm | - | 325 W/m² | - |
| 1777215867 | 2.78° C | 58% | 1006.7 hPa | 0 mm | - | 243 W/m² | - |
| 1777215563 | 2.78° C | 58% | 1007.1 hPa | 0 mm | - | 362 W/m² | - |
| 1777215259 | 2.22° C | 59% | 1007.1 hPa | 0 mm | - | 239 W/m² | - |
* Rain latest hour (hover to see other rain measurements)
** Current wind speed in m/s (hover to see current wind gust speed)